Hauptseite
METAR-TAF:

METAR-TAF

Flughäfen :

Flugplatz Turin-Aeritalia

Turin, Italien

Breite: 45-05-20N, Länge: 007-36-20E, Höhe: 288 m

Beobachtung

Neuester Wetterbericht von vor 28 Minuten, um 09:50 UTC
Windstille
Temperatur 2°C
Luftfeuchtigkeit 93%
Luftdruck 1017 hPa
Sichtweite: 8000 m
Leicht bewölkt in der Höhe von 500 ft
Durchbrochene Bewölkung in der Höhe von 2500 ft

METAR: LIMA 190950Z 00000KT 8000 FEW005 BKN025 02/01 Q1017

Zeit: 11:18 (10:18 UTC)


TAF: fehlend

Wetterbeobachtungen und Prognosen von mehr als 4000 Flughäfen (METAR und TAF Bericht).

Die verfügbaren Stationen werden durch gelbe und rote Markierungen auf der Karte dargestellt.

Führen Sie die Maus auf sie, um den Namen der Station zu sehen.

Darauf klicken, um die Beobachtung von Wetterbeobachtungen und Prognosen zu sehen.

Um die Karte zu ändern : klicken Sie auf den grünen Tasten mit einem schwarzen Kreuz Zum Vergrößern, auf den grünen Button mit einem Gedankenstrich zu verkleinern, oder auf die grünen Pfeile für benachbarte Karten.


METAR-TAF: